createdAt,value
2023-04-10T00:00:09.948Z,11.50
2023-04-10T00:02:37.585Z,14.30
2023-04-10T00:05:04.222Z,11.80
2023-04-10T00:07:30.926Z,14.60
2023-04-10T00:09:56.967Z,12.60
2023-04-10T00:12:23.116Z,19.57
2023-04-10T00:14:49.195Z,23.97
2023-04-10T00:17:15.366Z,20.50
2023-04-10T00:19:41.422Z,17.67
2023-04-10T00:22:07.612Z,23.77
2023-04-10T00:24:33.686Z,16.30
2023-04-10T00:27:00.842Z,12.63
2023-04-10T00:29:27.006Z,19.83
2023-04-10T00:31:53.215Z,18.37
2023-04-10T00:34:19.596Z,15.40
2023-04-10T00:36:49.090Z,19.57
2023-04-10T00:39:15.203Z,14.33
2023-04-10T00:41:41.373Z,13.80
2023-04-10T00:44:08.035Z,13.93
2023-04-10T00:46:36.785Z,14.17
2023-04-10T00:49:03.132Z,13.87
2023-04-10T00:51:29.274Z,15.50
2023-04-10T00:53:56.140Z,12.47
2023-04-10T00:56:24.252Z,16.10
2023-04-10T00:58:50.344Z,12.80
2023-04-10T01:01:17.096Z,15.87
2023-04-10T01:03:43.484Z,12.70
2023-04-10T01:06:30.970Z,13.27
2023-04-10T01:09:00.611Z,12.10
2023-04-10T01:11:47.020Z,11.70
2023-04-10T01:14:27.259Z,12.73
2023-04-10T01:17:00.186Z,15.77
2023-04-10T01:19:35.692Z,13.60
2023-04-10T01:22:03.179Z,18.07
2023-04-10T01:24:35.261Z,13.67
2023-04-10T01:27:09.390Z,13.20
2023-04-10T01:29:36.022Z,14.80
2023-04-10T01:32:06.931Z,13.63
2023-04-10T01:34:54.070Z,12.53
2023-04-10T01:37:24.310Z,13.80
2023-04-10T01:39:56.210Z,12.60
2023-04-10T01:42:22.767Z,13.53
2023-04-10T01:44:49.716Z,13.10
2023-04-10T01:47:17.466Z,12.93
2023-04-10T01:49:46.503Z,12.57
2023-04-10T01:52:13.706Z,12.33
2023-04-10T01:54:40.088Z,13.13
2023-04-10T01:57:06.639Z,12.20
2023-04-10T01:59:32.783Z,13.90
2023-04-10T02:02:00.213Z,13.70
2023-04-10T02:04:27.382Z,13.20
2023-04-10T02:07:03.989Z,14.23
2023-04-10T02:09:50.391Z,12.17
2023-04-10T02:12:22.199Z,12.07
2023-04-10T02:14:49.024Z,12.77
2023-04-10T02:17:18.267Z,13.30
2023-04-10T02:19:47.504Z,13.83
2023-04-10T02:22:15.392Z,12.97
2023-04-10T02:24:42.224Z,12.57
2023-04-10T02:27:08.301Z,17.70
2023-04-10T02:29:34.595Z,16.63
2023-04-10T02:32:00.698Z,18.50
2023-04-10T02:34:26.800Z,15.87
2023-04-10T02:36:53.799Z,18.40
2023-04-10T02:39:19.859Z,20.20
2023-04-10T02:41:45.900Z,19.60
2023-04-10T02:44:12.812Z,18.67
2023-04-10T02:46:38.931Z,20.43
2023-04-10T02:49:05.676Z,19.43
2023-04-10T02:51:35.419Z,20.23
2023-04-10T02:54:01.629Z,15.40
2023-04-10T02:56:27.888Z,15.07
2023-04-10T02:58:53.973Z,14.00
2023-04-10T03:01:21.447Z,15.17
2023-04-10T03:03:47.624Z,15.20
2023-04-10T03:06:13.807Z,16.37
2023-04-10T03:08:40.063Z,18.70
2023-04-10T03:11:07.274Z,14.80
2023-04-10T03:13:33.327Z,17.90
2023-04-10T03:15:59.683Z,15.13
2023-04-10T03:18:25.790Z,18.30
2023-04-10T03:20:51.884Z,17.90
2023-04-10T03:23:18.017Z,18.60
2023-04-10T03:25:44.116Z,19.47
2023-04-10T03:28:10.391Z,19.93
2023-04-10T03:30:36.530Z,18.50
2023-04-10T03:33:02.827Z,19.00
2023-04-10T03:35:28.892Z,19.97
2023-04-10T03:37:54.953Z,19.70
2023-04-10T03:40:21.095Z,21.23
2023-04-10T03:42:47.143Z,22.53
2023-04-10T03:45:13.310Z,17.00
2023-04-10T03:47:39.731Z,16.00
2023-04-10T03:50:06.243Z,17.20
2023-04-10T03:52:32.329Z,16.63
2023-04-10T03:54:58.564Z,15.67
2023-04-10T03:57:24.829Z,16.83
2023-04-10T03:59:51.144Z,14.53
2023-04-10T04:02:17.314Z,15.60
2023-04-10T04:04:43.543Z,14.57
2023-04-10T04:07:10.495Z,14.87
2023-04-10T04:09:36.738Z,14.33
2023-04-10T04:12:02.927Z,15.50
2023-04-10T04:14:29.013Z,16.83
2023-04-10T04:16:55.128Z,17.30
2023-04-10T04:19:21.260Z,17.30
2023-04-10T04:21:47.325Z,15.83
2023-04-10T04:24:13.377Z,15.10
2023-04-10T04:26:39.887Z,15.40
2023-04-10T04:29:06.050Z,20.00
2023-04-10T04:31:32.215Z,15.03
2023-04-10T04:33:59.470Z,13.43
2023-04-10T04:36:27.017Z,14.23
2023-04-10T04:38:53.683Z,17.57
2023-04-10T04:41:20.715Z,15.93
2023-04-10T04:43:46.822Z,13.90
2023-04-10T04:46:13.173Z,12.70
2023-04-10T04:48:39.276Z,13.70
2023-04-10T04:51:08.132Z,13.40
2023-04-10T04:53:34.294Z,12.27
2023-04-10T04:56:00.376Z,12.17
2023-04-10T04:58:26.440Z,15.47
2023-04-10T05:00:52.637Z,13.53
2023-04-10T05:03:18.859Z,18.20
2023-04-10T05:05:45.268Z,14.63
2023-04-10T05:08:11.413Z,15.13
2023-04-10T05:10:38.915Z,14.47
2023-04-10T05:13:05.270Z,15.90
2023-04-10T05:15:31.349Z,13.97
2023-04-10T05:17:57.528Z,13.83
2023-04-10T05:20:23.729Z,13.53
2023-04-10T05:22:49.920Z,23.53
2023-04-10T05:25:16.055Z,15.67
2023-04-10T05:27:42.115Z,13.73
2023-04-10T05:30:08.821Z,14.60
2023-04-10T05:32:34.869Z,16.13
2023-04-10T05:35:00.962Z,16.17
2023-04-10T05:37:27.082Z,17.53
2023-04-10T05:39:53.185Z,15.67
2023-04-10T05:42:19.951Z,14.00
2023-04-10T05:44:47.177Z,18.03
2023-04-10T05:47:13.217Z,14.00
2023-04-10T05:49:39.277Z,17.30
2023-04-10T05:52:05.326Z,16.70
2023-04-10T05:54:31.488Z,19.30
2023-04-10T05:56:57.582Z,19.83
2023-04-10T05:59:23.688Z,18.07
2023-04-10T06:01:50.176Z,19.90
2023-04-10T06:04:16.475Z,19.50
2023-04-10T06:06:42.773Z,20.20
2023-04-10T06:09:08.951Z,19.70
2023-04-10T06:11:35.222Z,17.47
2023-04-10T06:14:01.459Z,16.80
2023-04-10T06:16:27.597Z,17.13
2023-04-10T06:18:53.952Z,19.03
2023-04-10T06:21:20.218Z,19.80
2023-04-10T06:23:46.406Z,17.30
2023-04-10T06:26:12.524Z,17.90
2023-04-10T06:28:38.624Z,20.60
2023-04-10T06:31:07.575Z,16.50
2023-04-10T06:33:36.891Z,15.77
2023-04-10T06:36:03.689Z,18.20
2023-04-10T06:38:30.216Z,18.03
2023-04-10T06:40:56.323Z,17.50
2023-04-10T06:43:22.386Z,18.97
2023-04-10T06:45:48.462Z,16.23
2023-04-10T06:48:14.742Z,17.23
2023-04-10T06:50:40.805Z,15.17
2023-04-10T06:53:06.848Z,15.23
2023-04-10T06:55:32.923Z,14.40
2023-04-10T06:57:59.008Z,14.10
2023-04-10T07:00:25.159Z,15.73
2023-04-10T07:02:51.426Z,18.70
2023-04-10T07:05:17.652Z,14.07
2023-04-10T07:07:43.784Z,14.27
2023-04-10T07:10:10.270Z,13.07
2023-04-10T07:12:36.377Z,14.77
2023-04-10T07:15:02.545Z,14.37
2023-04-10T07:17:28.645Z,12.90
2023-04-10T07:19:54.888Z,14.63
2023-04-10T07:22:20.970Z,14.97
2023-04-10T07:24:47.584Z,15.60
2023-04-10T07:27:13.741Z,17.03
2023-04-10T07:29:40.065Z,14.83
2023-04-10T07:32:06.287Z,14.20
2023-04-10T07:34:32.489Z,13.57
2023-04-10T07:36:58.647Z,16.20
2023-04-10T07:39:24.716Z,12.90
2023-04-10T07:41:53.391Z,13.77
2023-04-10T07:44:19.432Z,15.00
2023-04-10T07:46:45.494Z,15.50
2023-04-10T07:49:11.744Z,15.73
2023-04-10T07:51:37.802Z,12.37
2023-04-10T07:54:04.027Z,12.17
2023-04-10T07:56:32.968Z,12.70
2023-04-10T07:59:00.272Z,20.60
2023-04-10T08:01:27.985Z,25.20
2023-04-10T08:03:55.634Z,12.30
2023-04-10T08:06:22.028Z,11.40
2023-04-10T08:08:48.098Z,10.70
2023-04-10T08:11:24.068Z,10.90
2023-04-10T08:13:54.198Z,10.17
2023-04-10T08:16:26.202Z,10.97
2023-04-10T08:18:53.765Z,10.00
2023-04-10T08:21:20.991Z,9.83
2023-04-10T08:23:50.705Z,10.10
2023-04-10T08:26:17.023Z,10.47
2023-04-10T08:28:48.511Z,9.63
2023-04-10T08:31:14.768Z,9.30
2023-04-10T08:33:40.979Z,9.70
2023-04-10T08:36:08.849Z,13.70
2023-04-10T08:38:34.986Z,9.67
2023-04-10T08:41:01.156Z,9.90
2023-04-10T08:43:27.251Z,9.13
2023-04-10T08:45:53.375Z,9.03
2023-04-10T08:48:20.991Z,11.57
2023-04-10T08:50:47.168Z,9.80
2023-04-10T08:53:14.215Z,10.33
2023-04-10T08:55:41.172Z,10.07
2023-04-10T08:58:07.813Z,11.57
2023-04-10T09:00:37.738Z,9.93
2023-04-10T09:03:07.800Z,9.63
2023-04-10T09:05:35.150Z,10.20
2023-04-10T09:08:01.215Z,9.60
2023-04-10T09:10:27.374Z,9.30
2023-04-10T09:12:53.462Z,9.77
2023-04-10T09:15:19.708Z,10.33
2023-04-10T09:18:02.201Z,11.93
2023-04-10T09:20:30.116Z,10.00
2023-04-10T09:22:56.402Z,9.27
2023-04-10T09:25:31.325Z,8.70
2023-04-10T09:28:05.878Z,9.23
2023-04-10T09:30:40.537Z,9.07
2023-04-10T09:33:23.893Z,8.93
2023-04-10T09:35:50.160Z,11.83
2023-04-10T09:38:18.161Z,9.27
2023-04-10T09:40:45.449Z,9.10
2023-04-10T09:43:20.030Z,8.67
2023-04-10T09:45:56.631Z,8.60
2023-04-10T09:48:24.702Z,9.00
2023-04-10T09:50:51.194Z,8.87
2023-04-10T09:53:19.533Z,10.90
2023-04-10T09:55:47.003Z,8.97
2023-04-10T09:58:13.826Z,8.87
2023-04-10T10:00:43.864Z,9.47
2023-04-10T10:03:12.220Z,8.47
2023-04-10T10:05:44.691Z,9.60
2023-04-10T10:08:12.370Z,8.83
2023-04-10T10:10:40.815Z,9.00
2023-04-10T10:13:07.895Z,8.73
2023-04-10T10:15:44.407Z,9.57
2023-04-10T10:18:35.783Z,10.13
2023-04-10T10:21:02.012Z,8.80
2023-04-10T10:23:28.176Z,8.87
2023-04-10T10:25:55.367Z,10.40
2023-04-10T10:28:22.008Z,8.23
2023-04-10T10:30:49.153Z,9.23
2023-04-10T10:33:15.465Z,8.20
2023-04-10T10:35:41.733Z,9.13
2023-04-10T10:38:07.968Z,8.50
2023-04-10T10:41:01.584Z,9.17
2023-04-10T10:43:37.396Z,7.63
2023-04-10T10:46:06.720Z,7.77
2023-04-10T10:48:32.864Z,8.93
2023-04-10T10:51:01.004Z,8.10
2023-04-10T10:53:33.854Z,8.20
2023-04-10T10:56:20.072Z,6.63
2023-04-10T10:58:54.968Z,8.50
2023-04-10T11:01:21.676Z,9.80
2023-04-10T11:03:48.263Z,8.00
2023-04-10T11:06:18.827Z,8.30
2023-04-10T11:08:52.553Z,8.67
2023-04-10T11:11:21.019Z,7.70
2023-04-10T11:13:51.312Z,8.47
2023-04-10T11:16:18.565Z,7.50
2023-04-10T11:18:44.864Z,7.50
2023-04-10T11:21:12.943Z,10.13
2023-04-10T11:23:59.888Z,8.47
2023-04-10T11:26:35.350Z,7.00
2023-04-10T11:29:27.392Z,6.73
2023-04-10T11:32:01.574Z,6.50
2023-04-10T11:34:30.026Z,6.50
2023-04-10T11:36:56.320Z,5.83
2023-04-10T11:39:22.388Z,6.37
2023-04-10T11:41:52.527Z,5.80
2023-04-10T11:44:34.650Z,4.87
2023-04-10T11:47:01.202Z,4.90
2023-04-10T11:49:30.505Z,4.97
2023-04-10T11:51:56.633Z,4.47
2023-04-10T11:54:27.529Z,4.97
2023-04-10T11:56:58.136Z,5.40
2023-04-10T11:59:25.189Z,4.60
2023-04-10T12:01:55.545Z,4.07
2023-04-10T12:04:22.828Z,5.10
2023-04-10T12:06:53.050Z,4.67
2023-04-10T12:09:20.654Z,3.83
2023-04-10T12:11:52.202Z,4.50
2023-04-10T12:14:20.107Z,4.73
2023-04-10T12:16:46.319Z,4.17
2023-04-10T12:19:14.112Z,4.43
2023-04-10T12:21:41.572Z,4.23
2023-04-10T12:24:07.716Z,3.83
2023-04-10T12:26:33.897Z,3.40
2023-04-10T12:29:00.093Z,3.40
2023-04-10T12:31:36.202Z,3.80
2023-04-10T12:34:05.663Z,3.70
2023-04-10T12:36:34.132Z,2.90
2023-04-10T12:39:02.310Z,3.10
2023-04-10T12:41:30.466Z,2.93
2023-04-10T12:44:08.361Z,3.40
2023-04-10T12:46:35.938Z,3.00
2023-04-10T12:49:13.451Z,3.63
2023-04-10T12:51:48.905Z,3.20
2023-04-10T12:54:34.796Z,3.30
2023-04-10T12:57:01.642Z,2.80
2023-04-10T12:59:29.221Z,3.13
2023-04-10T13:01:55.825Z,2.50
2023-04-10T13:04:23.078Z,2.60
2023-04-10T13:06:52.019Z,2.70
2023-04-10T13:09:18.410Z,2.53
2023-04-10T13:11:45.957Z,2.50
2023-04-10T13:14:13.208Z,2.27
2023-04-10T13:16:39.314Z,2.73
2023-04-10T13:19:05.471Z,2.50
2023-04-10T13:21:31.632Z,2.87
2023-04-10T13:23:57.748Z,3.03
2023-04-10T13:26:24.454Z,2.23
2023-04-10T13:28:50.538Z,2.50
2023-04-10T13:31:16.701Z,2.60
2023-04-10T13:33:47.353Z,2.60
2023-04-10T13:36:14.433Z,5.30
2023-04-10T13:38:40.810Z,2.30
2023-04-10T13:41:07.032Z,2.63
2023-04-10T13:43:33.177Z,2.93
2023-04-10T13:45:59.348Z,2.53
2023-04-10T13:48:37.418Z,2.33
2023-04-10T13:51:07.335Z,24.53
2023-04-10T13:53:33.718Z,4.50
2023-04-10T13:55:59.999Z,2.63
2023-04-10T13:58:27.904Z,2.70
2023-04-10T14:00:54.031Z,2.73
2023-04-10T14:03:20.704Z,2.90
2023-04-10T14:05:47.588Z,2.60
2023-04-10T14:08:15.155Z,2.60
2023-04-10T14:10:41.364Z,2.30
2023-04-10T14:13:08.371Z,3.27
2023-04-10T14:15:34.516Z,3.30
2023-04-10T14:18:00.590Z,2.90
2023-04-10T14:20:26.700Z,2.50
2023-04-10T14:22:52.792Z,2.70
2023-04-10T14:25:18.908Z,2.57
2023-04-10T14:27:45.173Z,2.60
2023-04-10T14:30:11.796Z,2.57
2023-04-10T14:32:38.753Z,2.70
2023-04-10T14:35:05.390Z,2.60
2023-04-10T14:37:31.776Z,2.80
2023-04-10T14:39:57.881Z,2.43
2023-04-10T14:42:23.994Z,3.77
2023-04-10T14:44:50.130Z,2.50
2023-04-10T14:47:16.252Z,2.50
2023-04-10T14:49:42.400Z,2.17
2023-04-10T14:52:08.605Z,2.53
2023-04-10T14:54:34.691Z,2.47
2023-04-10T14:57:01.281Z,2.73
2023-04-10T14:59:27.417Z,1.90
2023-04-10T15:01:53.509Z,2.73
2023-04-10T15:04:19.735Z,2.27
2023-04-10T15:06:45.917Z,2.30
2023-04-10T15:09:11.990Z,2.83
2023-04-10T15:11:38.144Z,2.30
2023-04-10T15:14:04.307Z,2.43
2023-04-10T15:16:30.640Z,2.40
2023-04-10T15:18:56.835Z,2.10
2023-04-10T15:21:23.025Z,2.83
2023-04-10T15:23:49.133Z,2.20
2023-04-10T15:26:16.060Z,2.00
2023-04-10T15:28:42.542Z,2.60
2023-04-10T15:31:10.174Z,2.70
2023-04-10T15:33:38.401Z,3.33
2023-04-10T15:36:05.821Z,2.63
2023-04-10T15:38:35.358Z,2.50
2023-04-10T15:41:07.575Z,2.60
2023-04-10T15:43:33.712Z,2.90
2023-04-10T15:46:01.172Z,2.73
2023-04-10T15:48:28.232Z,2.40
2023-04-10T15:50:54.438Z,2.70
2023-04-10T15:53:20.531Z,3.10
2023-04-10T15:55:46.675Z,2.60
2023-04-10T15:58:12.760Z,2.40
2023-04-10T16:00:38.891Z,2.80
2023-04-10T16:03:05.735Z,3.30
2023-04-10T16:05:32.087Z,3.07
2023-04-10T16:07:58.214Z,2.70
2023-04-10T16:10:24.321Z,3.20
2023-04-10T16:12:50.421Z,3.10
2023-04-10T16:15:16.615Z,3.00
2023-04-10T16:17:42.779Z,3.50
2023-04-10T16:20:09.028Z,3.73
2023-04-10T16:22:35.824Z,2.87
2023-04-10T16:25:18.878Z,3.50
2023-04-10T16:27:48.250Z,3.17
2023-04-10T16:30:14.564Z,2.80
2023-04-10T16:32:40.711Z,3.33
2023-04-10T16:35:07.470Z,2.97
2023-04-10T16:37:33.642Z,3.47
2023-04-10T16:39:59.940Z,3.27
2023-04-10T16:42:26.114Z,2.80
2023-04-10T16:44:52.299Z,3.10
2023-04-10T16:47:18.396Z,3.30
2023-04-10T16:49:45.200Z,2.63
2023-04-10T16:52:12.107Z,3.30
2023-04-10T16:54:38.976Z,5.87
2023-04-10T16:57:05.271Z,3.30
2023-04-10T16:59:32.128Z,2.80
2023-04-10T17:01:58.530Z,3.07
2023-04-10T17:04:24.969Z,2.90
2023-04-10T17:06:51.239Z,3.10
2023-04-10T17:09:17.415Z,3.10
2023-04-10T17:11:43.629Z,2.63
2023-04-10T17:14:10.164Z,2.80
2023-04-10T17:16:36.331Z,2.63
2023-04-10T17:19:02.473Z,3.17
2023-04-10T17:21:28.562Z,2.93
2023-04-10T17:23:54.700Z,2.83
2023-04-10T17:26:22.445Z,2.50
2023-04-10T17:28:49.424Z,2.87
2023-04-10T17:31:16.205Z,3.17
2023-04-10T17:33:42.708Z,3.07
2023-04-10T17:36:11.231Z,6.47
2023-04-10T17:38:38.179Z,3.13
2023-04-10T17:41:05.356Z,3.37
2023-04-10T17:43:32.830Z,3.10
2023-04-10T17:45:59.664Z,2.77
2023-04-10T17:48:25.987Z,3.40
2023-04-10T17:50:52.278Z,2.90
2023-04-10T17:53:18.839Z,3.33
2023-04-10T17:55:45.510Z,2.60
2023-04-10T17:58:11.977Z,3.30
2023-04-10T18:00:42.288Z,10.73
2023-04-10T18:03:09.098Z,3.47
2023-04-10T18:05:39.045Z,5.23
2023-04-10T18:08:05.722Z,3.00
2023-04-10T18:10:31.828Z,4.17
2023-04-10T18:12:58.057Z,3.90
2023-04-10T18:15:25.016Z,2.77
2023-04-10T18:17:51.333Z,3.40
2023-04-10T18:20:18.519Z,3.00
2023-04-10T18:22:46.738Z,2.97
2023-04-10T18:25:13.733Z,3.87
2023-04-10T18:27:51.433Z,2.70
2023-04-10T18:30:21.727Z,3.20
2023-04-10T18:32:51.302Z,3.07
2023-04-10T18:35:18.048Z,6.47
2023-04-10T18:37:44.179Z,2.93
2023-04-10T18:40:16.224Z,3.30
2023-04-10T18:42:43.009Z,3.30
2023-04-10T18:45:09.681Z,3.00
2023-04-10T18:47:35.766Z,7.10
2023-04-10T18:50:01.888Z,3.27
2023-04-10T18:52:28.002Z,3.60
2023-04-10T18:54:54.128Z,2.60
2023-04-10T18:57:20.183Z,3.10
2023-04-10T18:59:46.296Z,3.10
2023-04-10T19:02:12.506Z,2.90
2023-04-10T19:04:38.752Z,3.00
2023-04-10T19:07:04.856Z,2.97
2023-04-10T19:09:30.922Z,2.60
2023-04-10T19:11:57.337Z,3.40
2023-04-10T19:14:23.399Z,3.10
2023-04-10T19:16:49.639Z,3.00
2023-04-10T19:19:15.895Z,3.07
2023-04-10T19:21:41.979Z,7.20
2023-04-10T19:24:08.122Z,3.13
2023-04-10T19:26:34.206Z,3.07
2023-04-10T19:29:00.369Z,2.70
2023-04-10T19:31:28.816Z,2.83
2023-04-10T19:33:55.402Z,2.80
2023-04-10T19:36:21.650Z,2.70
2023-04-10T19:38:48.175Z,2.60
2023-04-10T19:41:15.020Z,2.67
2023-04-10T19:43:41.346Z,3.73
2023-04-10T19:46:15.807Z,3.07
2023-04-10T19:48:41.916Z,2.80
2023-04-10T19:51:07.963Z,2.43
2023-04-10T19:53:34.051Z,3.70
2023-04-10T19:56:00.171Z,4.50
2023-04-10T20:01:04.353Z,4.17
2023-04-10T20:03:31.778Z,3.13
2023-04-10T20:05:59.634Z,2.80
2023-04-10T20:08:25.851Z,2.80
2023-04-10T20:10:51.892Z,2.90
2023-04-10T20:13:17.962Z,2.70
2023-04-10T20:15:44.094Z,4.63
2023-04-10T20:18:11.651Z,3.07
2023-04-10T20:20:37.781Z,2.97
2023-04-10T20:23:03.858Z,3.27
2023-04-10T20:25:30.052Z,3.23
2023-04-10T20:27:56.113Z,2.87
2023-04-10T20:30:22.286Z,3.00
2023-04-10T20:32:48.406Z,2.80
2023-04-10T20:35:14.688Z,3.30
2023-04-10T20:37:40.749Z,3.77
2023-04-10T20:40:07.622Z,2.50
2023-04-10T20:42:33.740Z,2.43
2023-04-10T20:44:59.786Z,3.10
2023-04-10T20:47:25.867Z,3.00
2023-04-10T20:49:51.949Z,2.60
2023-04-10T20:52:18.009Z,2.67
2023-04-10T20:54:44.069Z,2.87
2023-04-10T20:57:10.161Z,3.00
2023-04-10T20:59:36.313Z,2.90
2023-04-10T21:02:02.730Z,2.80
2023-04-10T21:04:28.936Z,2.80
2023-04-10T21:06:55.112Z,2.60
2023-04-10T21:09:21.170Z,3.20
2023-04-10T21:11:47.249Z,3.00
2023-04-10T21:14:13.354Z,2.83
2023-04-10T21:16:41.743Z,2.67
2023-04-10T21:19:08.512Z,2.80
2023-04-10T21:21:35.111Z,2.40
2023-04-10T21:24:01.266Z,2.37
2023-04-10T21:26:27.388Z,2.90
2023-04-10T21:28:53.768Z,3.83
2023-04-10T21:31:20.317Z,2.40
2023-04-10T21:33:46.705Z,3.20
2023-04-10T21:36:12.846Z,2.77
2023-04-10T21:38:39.001Z,2.63
2023-04-10T21:41:05.594Z,3.00
2023-04-10T21:43:31.732Z,3.17
2023-04-10T21:45:57.799Z,2.50
2023-04-10T21:48:23.915Z,2.90
2023-04-10T21:50:50.711Z,2.77
2023-04-10T21:53:16.824Z,3.47
2023-04-10T21:55:42.858Z,3.07
2023-04-10T21:58:08.929Z,2.33
2023-04-10T22:00:35.232Z,2.30
2023-04-10T22:03:01.431Z,2.73
2023-04-10T22:05:27.688Z,2.90
2023-04-10T22:07:54.810Z,3.10
2023-04-10T22:10:20.918Z,2.70
2023-04-10T22:12:49.052Z,2.97
2023-04-10T22:15:16.275Z,3.07
2023-04-10T22:17:42.440Z,2.63
2023-04-10T22:20:09.218Z,3.20
2023-04-10T22:22:35.264Z,2.70
2023-04-10T22:25:01.342Z,2.57
2023-04-10T22:27:27.452Z,2.80
2023-04-10T22:30:02.738Z,2.57
2023-04-10T22:32:30.824Z,2.20
2023-04-10T22:34:58.662Z,2.43
2023-04-10T22:37:25.463Z,2.50
2023-04-10T22:39:51.539Z,2.70
2023-04-10T22:42:17.669Z,2.47
2023-04-10T22:44:44.704Z,2.50
2023-04-10T22:47:10.832Z,3.20
2023-04-10T22:49:36.882Z,2.70
2023-04-10T22:52:02.961Z,2.53
2023-04-10T22:54:29.264Z,3.37
2023-04-10T22:56:56.760Z,2.90
2023-04-10T22:59:22.841Z,3.57
2023-04-10T23:01:49.010Z,2.70
2023-04-10T23:04:15.760Z,2.90
2023-04-10T23:06:41.841Z,3.43
2023-04-10T23:09:08.001Z,2.90
2023-04-10T23:11:35.938Z,2.60
2023-04-10T23:14:02.075Z,2.70
2023-04-10T23:16:28.181Z,3.30
2023-04-10T23:18:54.951Z,3.07
2023-04-10T23:21:21.172Z,2.80
2023-04-10T23:23:47.271Z,3.33
2023-04-10T23:26:13.965Z,2.93
2023-04-10T23:28:40.279Z,5.30
2023-04-10T23:31:08.291Z,2.97
2023-04-10T23:33:34.372Z,3.20
2023-04-10T23:36:00.465Z,2.60
2023-04-10T23:38:26.730Z,2.27
2023-04-10T23:40:53.507Z,1.60
2023-04-10T23:43:19.601Z,3.00
2023-04-10T23:45:45.647Z,1.97
2023-04-10T23:48:11.749Z,1.40
2023-04-10T23:50:37.957Z,1.10
2023-04-10T23:53:07.754Z,1.10
2023-04-10T23:55:38.748Z,2.43
2023-04-10T23:58:04.890Z,1.47
